aviador You're here:

LFML Decoded Metar

MARSEILLE in FRANCE
Report Time2018-06-17 23:00:00
UTC Time2018-06-17 23:33:16
Flight Rules vfr VFR
Wind320° at 19 kt
W.Decomp.*RWY 31: 18.8 kt HW 3.0 kt RCW
W.Rank320° ranks 1
Current wind is above 320° avg. (17.1)
Visibility9999 m
Phenomena:N/A
Clouds:N/A
Expected CloudBase > 4,000 ft AGL from Temp-Dew spread
CeilingNone
Temp22°C (ISA +7)
Dew Point12°C (53% RH)
AAT15.8°C
QNH1016 hPa
Density Alt1,050 ft
Elevation118 ft
Report Wrong Elevation
Raw Report
METAR LFML 172300Z AUTO 32019KT CAVOK 22/12 Q1016 BECMG 33020G35KT=

Extra information for LFML:More info

Metar Taf Metar & Taf Last 4 Metars F.Rules Stats Wind Profile Meteogram Temp Stats Airport Information Weather charts Add Link Nearby VenuesMetar ALERT Operation Metar Decoded Social comments